createdAt,value
2022-12-16T00:00:12.382Z,87.29
2022-12-16T00:03:02.723Z,87.26
2022-12-16T00:05:52.067Z,87.21
2022-12-16T00:08:42.910Z,86.53
2022-12-16T00:11:32.813Z,87.22
2022-12-16T00:14:22.145Z,87.22
2022-12-16T00:17:11.502Z,86.52
2022-12-16T00:20:02.887Z,86.59
2022-12-16T00:22:53.583Z,86.46
2022-12-16T00:25:46.455Z,86.44
2022-12-16T00:28:36.147Z,85.93
2022-12-16T00:31:25.563Z,85.54
2022-12-16T00:34:14.969Z,85.83
2022-12-16T00:37:04.620Z,85.61
2022-12-16T00:39:53.997Z,85.86
2022-12-16T00:42:45.864Z,85.93
2022-12-16T00:45:35.531Z,85.64
2022-12-16T00:48:25.721Z,85.98
2022-12-16T00:51:15.023Z,85.79
2022-12-16T00:54:04.473Z,85.92
2022-12-16T00:56:54.581Z,86.14
2022-12-16T00:59:46.019Z,85.48
2022-12-16T01:02:35.365Z,85.29
2022-12-16T01:05:27.131Z,84.80
2022-12-16T01:08:16.759Z,84.68
2022-12-16T01:11:06.344Z,85.18
2022-12-16T01:13:55.684Z,84.95
2022-12-16T01:16:46.358Z,85.09
2022-12-16T01:19:35.675Z,84.74
2022-12-16T01:22:25.092Z,84.56
2022-12-16T01:25:14.712Z,84.56
2022-12-16T01:28:04.300Z,84.74
2022-12-16T01:31:02.080Z,84.93
2022-12-16T01:33:52.866Z,84.97
2022-12-16T01:36:42.093Z,85.24
2022-12-16T01:39:31.633Z,85.56
2022-12-16T01:42:24.055Z,85.46
2022-12-16T01:45:35.362Z,85.68
2022-12-16T01:48:40.205Z,85.53
2022-12-16T01:51:35.993Z,85.83
2022-12-16T01:54:30.449Z,85.78
2022-12-16T01:57:25.123Z,85.94
2022-12-16T02:00:16.206Z,85.92
2022-12-16T02:03:06.449Z,85.71
2022-12-16T02:05:56.504Z,85.54
2022-12-16T02:08:47.531Z,85.02
2022-12-16T02:12:19.381Z,85.35
2022-12-16T02:15:36.922Z,85.82
2022-12-16T02:18:41.726Z,86.06
2022-12-16T02:22:04.542Z,86.51
2022-12-16T02:25:25.848Z,86.25
2022-12-16T02:28:29.569Z,86.13
2022-12-16T02:31:30.975Z,85.96
2022-12-16T02:34:31.027Z,86.05
2022-12-16T02:37:32.775Z,85.95
2022-12-16T02:40:29.916Z,85.27
2022-12-16T02:43:36.332Z,85.44
2022-12-16T02:46:32.064Z,85.09
2022-12-16T02:50:01.479Z,85.48
2022-12-16T02:52:52.188Z,85.26
2022-12-16T02:55:58.545Z,85.28
2022-12-16T02:58:59.117Z,84.95
2022-12-16T03:02:00.021Z,85.04
2022-12-16T03:04:56.469Z,85.17
2022-12-16T03:07:47.141Z,85.15
2022-12-16T03:10:42.594Z,84.98
2022-12-16T03:13:38.830Z,85.23
2022-12-16T03:16:34.764Z,85.26
2022-12-16T03:19:27.790Z,85.10
2022-12-16T03:22:22.295Z,85.05
2022-12-16T03:25:12.200Z,85.64
2022-12-16T03:28:12.967Z,85.48
2022-12-16T03:31:15.394Z,85.04
2022-12-16T03:34:13.188Z,85.11
2022-12-16T03:37:07.253Z,85.40
2022-12-16T03:40:00.024Z,85.77
2022-12-16T03:42:50.630Z,86.50
2022-12-16T03:45:44.090Z,86.26
2022-12-16T03:48:34.271Z,85.92
2022-12-16T03:51:24.468Z,85.82
2022-12-16T03:54:15.131Z,85.73
2022-12-16T03:57:05.084Z,85.87
2022-12-16T03:59:54.400Z,85.45
2022-12-16T04:02:44.701Z,85.86
2022-12-16T04:05:34.224Z,85.86
2022-12-16T04:08:23.616Z,85.78
2022-12-16T04:11:31.863Z,85.91
2022-12-16T04:14:38.240Z,86.11
2022-12-16T04:17:45.264Z,86.10
2022-12-16T04:20:55.716Z,86.17
2022-12-16T04:24:06.882Z,86.10
2022-12-16T04:27:15.804Z,85.59
2022-12-16T04:30:21.968Z,85.78
2022-12-16T04:33:32.306Z,86.09
2022-12-16T04:36:39.304Z,86.40
2022-12-16T04:39:45.739Z,86.15
2022-12-16T04:42:53.669Z,86.03
2022-12-16T04:45:59.993Z,85.83
2022-12-16T04:49:18.166Z,86.28
2022-12-16T04:52:24.999Z,86.30
2022-12-16T04:55:32.082Z,86.55
2022-12-16T04:58:40.052Z,85.96
2022-12-16T05:01:46.709Z,85.98
2022-12-16T05:04:53.404Z,85.58
2022-12-16T05:07:59.747Z,85.80
2022-12-16T05:11:06.225Z,85.30
2022-12-16T05:14:14.283Z,85.54
2022-12-16T05:17:20.726Z,85.74
2022-12-16T05:20:28.321Z,85.61
2022-12-16T05:23:40.401Z,85.50
2022-12-16T05:26:47.081Z,86.01
2022-12-16T05:29:55.004Z,85.49
2022-12-16T05:33:01.812Z,85.36
2022-12-16T05:36:08.975Z,85.82
2022-12-16T05:39:16.292Z,85.86
2022-12-16T05:42:23.370Z,85.48
2022-12-16T05:45:31.658Z,85.25
2022-12-16T05:48:40.051Z,84.99
2022-12-16T05:51:49.967Z,85.28
2022-12-16T05:54:56.342Z,84.61
2022-12-16T05:58:03.322Z,84.93
2022-12-16T06:01:11.393Z,84.83
2022-12-16T06:04:18.401Z,85.25
2022-12-16T06:07:24.964Z,85.15
2022-12-16T06:10:32.056Z,85.20
2022-12-16T06:13:38.390Z,84.61
2022-12-16T06:16:46.559Z,85.00
2022-12-16T06:19:49.779Z,84.86
2022-12-16T06:22:56.498Z,84.95
2022-12-16T06:26:03.448Z,84.87
2022-12-16T06:29:10.780Z,85.31
2022-12-16T06:32:18.913Z,85.15
2022-12-16T06:35:26.599Z,84.76
2022-12-16T06:38:41.950Z,84.83
2022-12-16T06:41:48.748Z,85.16
2022-12-16T06:44:55.464Z,85.40
2022-12-16T06:48:03.575Z,84.96
2022-12-16T06:51:09.894Z,85.03
2022-12-16T06:54:16.380Z,84.87
2022-12-16T06:57:23.475Z,84.96
2022-12-16T07:00:31.571Z,85.24
2022-12-16T07:03:39.829Z,85.02
2022-12-16T07:06:47.019Z,85.25
2022-12-16T07:09:53.969Z,84.64
2022-12-16T07:13:00.453Z,84.72
2022-12-16T07:16:07.437Z,84.34
2022-12-16T07:19:15.658Z,84.61
2022-12-16T07:22:22.676Z,84.28
2022-12-16T07:25:29.791Z,84.89
2022-12-16T07:28:36.504Z,85.14
2022-12-16T07:31:48.905Z,85.17
2022-12-16T07:34:57.167Z,84.63
2022-12-16T07:38:04.014Z,85.36
2022-12-16T07:41:10.880Z,84.95
2022-12-16T07:44:17.286Z,84.79
2022-12-16T07:47:24.314Z,84.57
2022-12-16T07:50:32.266Z,84.38
2022-12-16T07:53:39.724Z,84.23
2022-12-16T07:56:46.894Z,84.39
2022-12-16T07:59:53.258Z,84.43
2022-12-16T08:03:00.342Z,84.28
2022-12-16T08:06:09.932Z,84.36
2022-12-16T08:09:16.819Z,84.13
2022-12-16T08:12:24.024Z,84.24
2022-12-16T08:15:31.033Z,84.38
2022-12-16T08:18:37.919Z,84.50
2022-12-16T08:21:46.085Z,84.12
2022-12-16T08:24:53.804Z,83.93
2022-12-16T08:28:03.313Z,83.79
2022-12-16T08:31:10.390Z,84.18
2022-12-16T08:34:17.478Z,84.27
2022-12-16T08:37:26.287Z,84.01
2022-12-16T08:40:35.636Z,84.11
2022-12-16T08:43:42.411Z,83.88
2022-12-16T08:46:49.282Z,83.77
2022-12-16T08:49:57.912Z,84.05
2022-12-16T08:53:10.843Z,83.55
2022-12-16T08:56:17.960Z,83.33
2022-12-16T08:59:24.975Z,83.73
2022-12-16T09:02:32.057Z,83.63
2022-12-16T09:05:38.660Z,83.25
2022-12-16T09:08:46.660Z,83.56
2022-12-16T09:11:53.018Z,83.20
2022-12-16T09:14:59.479Z,83.12
2022-12-16T09:18:13.098Z,83.38
2022-12-16T09:21:20.127Z,83.31
2022-12-16T09:24:28.654Z,83.84
2022-12-16T09:27:35.164Z,83.42
2022-12-16T09:30:42.355Z,83.31
2022-12-16T09:33:49.368Z,83.33
2022-12-16T09:36:55.923Z,82.88
2022-12-16T09:40:04.142Z,83.25
2022-12-16T09:43:18.517Z,83.56
2022-12-16T09:46:34.166Z,83.81
2022-12-16T09:49:55.393Z,84.57
2022-12-16T09:53:08.512Z,84.86
2022-12-16T09:56:17.997Z,84.64
2022-12-16T09:59:29.880Z,84.79
2022-12-16T10:02:38.456Z,84.46
2022-12-16T10:05:59.494Z,84.43
2022-12-16T10:09:15.731Z,85.06
2022-12-16T10:12:35.913Z,84.67
2022-12-16T10:15:57.788Z,84.66
2022-12-16T10:19:14.033Z,84.50
2022-12-16T10:22:30.090Z,84.48
2022-12-16T10:25:40.714Z,84.90
2022-12-16T10:29:03.926Z,84.95
2022-12-16T10:32:10.347Z,84.94
2022-12-16T10:35:16.833Z,84.90
2022-12-16T10:38:36.960Z,85.03
2022-12-16T10:41:48.282Z,84.85
2022-12-16T10:45:06.460Z,85.01
2022-12-16T10:48:13.266Z,85.12
2022-12-16T10:51:19.862Z,85.39
2022-12-16T10:54:50.522Z,87.41
2022-12-16T10:58:14.863Z,87.45
2022-12-16T11:01:38.893Z,86.39
2022-12-16T11:04:52.026Z,85.78
2022-12-16T11:08:12.298Z,84.48
2022-12-16T11:11:34.232Z,83.81
2022-12-16T11:15:05.601Z,83.54
2022-12-16T11:18:23.729Z,82.93
2022-12-16T11:21:34.118Z,83.00
2022-12-16T11:24:41.103Z,83.28
2022-12-16T11:27:53.544Z,83.44
2022-12-16T11:31:00.398Z,83.37
2022-12-16T11:34:09.556Z,83.74
2022-12-16T11:37:21.013Z,83.26
2022-12-16T11:40:33.481Z,83.97
2022-12-16T11:43:42.542Z,83.99
2022-12-16T11:46:49.584Z,83.68
2022-12-16T11:49:59.083Z,83.30
2022-12-16T11:53:14.504Z,83.86
2022-12-16T11:56:21.679Z,84.06
2022-12-16T11:59:39.453Z,76.00
2022-12-16T12:02:54.739Z,75.76
2022-12-16T12:06:17.672Z,74.02
2022-12-16T12:09:32.122Z,70.84
2022-12-16T12:12:50.133Z,69.91
2022-12-16T12:16:03.445Z,66.90
2022-12-16T12:19:16.218Z,65.14
2022-12-16T12:22:36.998Z,67.31
2022-12-16T12:25:56.050Z,69.80
2022-12-16T12:29:10.702Z,69.48
2022-12-16T12:32:36.785Z,70.14
2022-12-16T12:35:59.338Z,70.59
2022-12-16T12:39:26.050Z,69.75
2022-12-16T12:42:49.776Z,70.07
2022-12-16T12:46:27.715Z,71.07
2022-12-16T12:49:43.880Z,71.84
2022-12-16T12:53:23.358Z,71.66
2022-12-16T12:56:48.114Z,70.29
2022-12-16T13:00:07.680Z,72.66
2022-12-16T13:03:24.320Z,72.93
2022-12-16T13:06:33.403Z,70.25
2022-12-16T13:09:48.307Z,71.19
2022-12-16T13:12:56.399Z,73.77
2022-12-16T13:16:03.128Z,74.03
2022-12-16T13:20:02.334Z,72.01
2022-12-16T13:23:09.006Z,69.68
2022-12-16T13:26:24.154Z,72.05
2022-12-16T13:29:40.390Z,71.40
2022-12-16T13:32:47.442Z,71.08
2022-12-16T13:35:54.286Z,69.68
2022-12-16T13:39:06.071Z,69.72
2022-12-16T13:42:19.795Z,69.18
2022-12-16T13:45:56.576Z,69.46
2022-12-16T13:49:03.756Z,69.53
2022-12-16T13:52:20.796Z,69.32
2022-12-16T13:55:38.003Z,68.27
2022-12-16T13:58:56.423Z,68.49
2022-12-16T14:02:12.696Z,68.70
2022-12-16T14:05:19.922Z,68.19
2022-12-16T14:08:35.262Z,68.34
2022-12-16T14:11:55.187Z,68.84
2022-12-16T14:15:08.388Z,68.57
2022-12-16T14:18:21.964Z,68.82
2022-12-16T14:21:35.522Z,68.14
2022-12-16T14:24:45.633Z,68.58
2022-12-16T14:28:08.829Z,67.66
2022-12-16T14:31:24.303Z,68.23
2022-12-16T14:34:38.833Z,66.76
2022-12-16T14:37:54.408Z,66.81
2022-12-16T14:41:01.432Z,66.66
2022-12-16T14:44:08.326Z,66.78
2022-12-16T14:47:15.797Z,66.31
2022-12-16T14:50:41.184Z,66.07
2022-12-16T14:53:50.852Z,66.41
2022-12-16T14:56:58.470Z,65.43
2022-12-16T15:00:05.689Z,65.43
2022-12-16T15:03:16.304Z,65.56
2022-12-16T15:06:30.116Z,65.49
2022-12-16T15:09:43.266Z,64.61
2022-12-16T15:12:54.659Z,64.23
2022-12-16T15:16:06.055Z,64.45
2022-12-16T15:19:19.278Z,64.41
2022-12-16T15:22:33.383Z,64.13
2022-12-16T15:25:43.271Z,63.71
2022-12-16T15:28:58.899Z,63.60
2022-12-16T15:32:05.620Z,63.37
2022-12-16T15:35:12.329Z,62.91
2022-12-16T15:38:20.921Z,62.87
2022-12-16T15:41:42.522Z,63.80
2022-12-16T15:44:49.595Z,63.78
2022-12-16T15:47:57.132Z,64.25
2022-12-16T15:51:11.452Z,64.10
2022-12-16T15:54:22.909Z,64.29
2022-12-16T15:57:50.871Z,64.11
2022-12-16T16:00:57.745Z,64.10
2022-12-16T16:04:09.525Z,64.02
2022-12-16T16:07:24.992Z,64.64
2022-12-16T16:10:38.882Z,64.82
2022-12-16T16:13:45.600Z,64.76
2022-12-16T16:16:52.592Z,64.15
2022-12-16T16:20:03.486Z,64.58
2022-12-16T16:23:11.187Z,64.07
2022-12-16T16:26:19.340Z,64.49
2022-12-16T16:29:28.578Z,63.68
2022-12-16T16:32:35.515Z,63.81
2022-12-16T16:35:42.396Z,63.69
2022-12-16T16:38:49.036Z,63.81
2022-12-16T16:41:57.061Z,63.82
2022-12-16T16:45:03.662Z,63.12
2022-12-16T16:48:13.408Z,63.35
2022-12-16T16:51:22.426Z,63.04
2022-12-16T16:54:28.809Z,63.21
2022-12-16T16:57:36.879Z,62.30
2022-12-16T17:00:44.078Z,63.12
2022-12-16T17:03:51.196Z,62.21
2022-12-16T17:06:57.783Z,62.78
2022-12-16T17:10:04.182Z,62.74
2022-12-16T17:13:12.174Z,62.77
2022-12-16T17:16:19.030Z,62.97
2022-12-16T17:19:25.723Z,62.67
2022-12-16T17:22:32.400Z,62.62
2022-12-16T17:25:39.193Z,62.51
2022-12-16T17:28:47.279Z,62.80
2022-12-16T17:31:54.491Z,62.91
2022-12-16T17:35:04.145Z,62.66
2022-12-16T17:38:10.735Z,62.26
2022-12-16T17:41:18.450Z,62.16
2022-12-16T17:44:26.714Z,61.94
2022-12-16T17:47:34.402Z,61.66
2022-12-16T17:50:40.943Z,61.86
2022-12-16T17:53:49.413Z,62.12
2022-12-16T17:56:55.909Z,62.41
2022-12-16T18:00:00.620Z,62.54
2022-12-16T18:03:07.863Z,62.96
2022-12-16T18:06:16.029Z,63.63
2022-12-16T18:09:37.551Z,63.42
2022-12-16T18:12:44.627Z,64.50
2022-12-16T18:15:52.744Z,64.91
2022-12-16T18:19:08.282Z,64.97
2022-12-16T18:22:15.212Z,65.95
2022-12-16T18:25:21.987Z,65.73
2022-12-16T18:28:31.616Z,65.84
2022-12-16T18:31:39.437Z,65.57
2022-12-16T18:34:46.967Z,65.48
2022-12-16T18:37:53.805Z,65.72
2022-12-16T18:41:00.149Z,65.89
2022-12-16T18:44:08.143Z,66.16
2022-12-16T18:47:16.074Z,66.35
2022-12-16T18:50:28.558Z,66.37
2022-12-16T18:53:37.496Z,66.90
2022-12-16T18:56:44.723Z,66.64
2022-12-16T18:59:51.379Z,66.86
2022-12-16T19:02:59.463Z,66.61
2022-12-16T19:06:13.208Z,67.20
2022-12-16T19:09:20.138Z,67.51
2022-12-16T19:12:27.277Z,68.63
2022-12-16T19:15:38.058Z,67.92
2022-12-16T19:18:49.265Z,68.03
2022-12-16T19:21:56.274Z,68.06
2022-12-16T19:25:03.761Z,68.21
2022-12-16T19:28:10.464Z,68.69
2022-12-16T19:31:17.546Z,68.66
2022-12-16T19:34:25.548Z,68.92
2022-12-16T19:37:31.950Z,68.57
2022-12-16T19:40:38.799Z,69.29
2022-12-16T19:43:45.491Z,69.05
2022-12-16T19:46:55.855Z,69.24
2022-12-16T19:50:04.640Z,69.39
2022-12-16T19:53:11.959Z,69.58
2022-12-16T19:56:19.838Z,69.38
2022-12-16T19:59:27.372Z,69.50
2022-12-16T20:02:35.036Z,69.50
2022-12-16T20:05:43.511Z,70.62
2022-12-16T20:08:50.752Z,70.53
2022-12-16T20:12:01.393Z,70.55
2022-12-16T20:15:11.241Z,71.57
2022-12-16T20:18:18.641Z,71.59
2022-12-16T20:21:27.612Z,71.47
2022-12-16T20:24:34.696Z,71.55
2022-12-16T20:27:41.086Z,72.11
2022-12-16T20:30:51.442Z,72.40
2022-12-16T20:34:02.895Z,72.19
2022-12-16T20:37:11.911Z,72.81
2022-12-16T20:40:18.900Z,72.41
2022-12-16T20:43:25.725Z,72.53
2022-12-16T20:46:32.677Z,72.67
2022-12-16T20:49:40.003Z,72.53
2022-12-16T20:52:56.606Z,72.74
2022-12-16T20:56:03.300Z,72.48
2022-12-16T20:59:10.135Z,72.52
2022-12-16T21:02:27.905Z,73.01
2022-12-16T21:05:38.697Z,72.59
2022-12-16T21:08:47.390Z,72.65
2022-12-16T21:15:21.019Z,72.88
2022-12-16T21:18:27.837Z,72.25
2022-12-16T21:21:34.995Z,71.96
2022-12-16T21:24:43.166Z,72.16
2022-12-16T21:27:49.737Z,72.08
2022-12-16T21:30:56.953Z,72.13
2022-12-16T21:34:04.150Z,71.31
2022-12-16T21:37:10.894Z,72.16
2022-12-16T21:40:21.397Z,71.97
2022-12-16T21:43:28.021Z,72.08
2022-12-16T21:46:34.469Z,72.16
2022-12-16T21:49:41.661Z,71.51
2022-12-16T21:52:48.756Z,72.34
2022-12-16T21:55:56.921Z,72.46
2022-12-16T21:59:03.535Z,71.69
2022-12-16T22:02:10.617Z,72.42
2022-12-16T22:05:17.070Z,73.00
2022-12-16T22:08:40.398Z,73.61
2022-12-16T22:11:50.981Z,73.35
2022-12-16T22:14:58.893Z,74.70
2022-12-16T22:18:05.886Z,74.53
2022-12-16T22:21:17.704Z,74.66
2022-12-16T22:24:24.797Z,74.95
2022-12-16T22:27:32.903Z,74.85
2022-12-16T22:30:39.575Z,75.13
2022-12-16T22:33:46.615Z,74.86
2022-12-16T22:36:21.850Z,72.64
2022-12-16T22:36:59.308Z,74.67
2022-12-16T22:40:06.013Z,74.30
2022-12-16T22:43:14.266Z,74.88
2022-12-16T22:46:21.856Z,74.91
2022-12-16T22:49:28.647Z,74.23
2022-12-16T22:52:35.355Z,75.51
2022-12-16T22:55:42.155Z,75.01
2022-12-16T22:58:50.090Z,74.72
2022-12-16T23:01:57.198Z,75.07
2022-12-16T23:05:03.860Z,76.38
2022-12-16T23:08:10.803Z,75.65
2022-12-16T23:11:18.928Z,76.38
2022-12-16T23:14:26.878Z,76.57
2022-12-16T23:17:33.947Z,76.71
2022-12-16T23:20:40.515Z,77.11
2022-12-16T23:23:47.422Z,76.92
2022-12-16T23:26:54.406Z,76.69
2022-12-16T23:30:04.313Z,76.38
2022-12-16T23:33:16.219Z,76.96
2022-12-16T23:36:23.910Z,76.62
2022-12-16T23:39:31.035Z,76.16
2022-12-16T23:42:37.631Z,76.12
2022-12-16T23:45:45.898Z,76.56
2022-12-16T23:48:52.523Z,76.83
2022-12-16T23:52:00.339Z,76.64
2022-12-16T23:55:06.814Z,76.86
2022-12-16T23:58:17.793Z,77.35
